Weches, Texas
Current Conditions -  °F | °C
As of 11:35 AM on Monday 24 Nov 2014 (Local Time) from KDKR Reporting Station
Clear Clear  
Wind Chill: 63°   Ceiling: Unl
Heat Index: 63°   Visibility: 10mi
Dew Point: 36°   Wind: 9mph
Humidity: 37%   Direction: 350°N
Pressure: 30.08"   Gusts: NA
Location:  31.4982°N, 95.4177°W
Report Text: KDKR 241735Z AUTO 35008KT 10SM CLR 17/02 A3008 RMK AO2
Loading
Personal Weather Stations






























Interactive Weather Map New forecast layout! Learn more

10-Day Weather Forecast

Advertisements
Track Severe Weather on mobile